Time;durP1;ratioP1;P1;durP2;ratioP2;P2;SDS_P1;SDS_P2;PMS_P1;PMS_P2;Temp;Humidity;BMP_temperature;BMP_pressure;BME280_temperature;BME280_humidity;BME280_pressure;Samples;Min_cycle;Max_cycle;Signal;HPM_P1;HPM_P2
2022/09/13 00:01:38;;;;;;;2.97;2.42;;;;;;;14.18;61.50;99721.34;4362836;32;33693;-80
2022/09/13 00:04:07;;;;;;;3.10;2.37;;;;;;;14.28;62.01;99726.78;4362822;32;34114;-81
2022/09/13 00:06:35;;;;;;;2.95;2.40;;;;;;;14.19;61.03;99727.59;4362499;32;34166;-81
2022/09/13 00:09:02;;;;;;;3.28;2.55;;;;;;;14.01;61.51;99728.97;4362702;32;33579;-80
2022/09/13 00:11:30;;;;;;;4.43;2.80;;;;;;;14.08;61.44;99724.88;4348573;32;34149;-80
2022/09/13 00:13:58;;;;;;;4.80;2.62;;;;;;;13.91;62.70;99733.34;4362595;32;34892;-80
2022/09/13 00:16:27;;;;;;;3.55;2.70;;;;;;;13.94;63.13;99730.06;4362566;32;33955;-78
2022/09/13 00:18:55;;;;;;;4.47;2.85;;;;;;;14.05;61.97;99725.41;4362481;32;33558;-79
2022/09/13 00:21:23;;;;;;;3.30;2.62;;;;;;;13.98;61.22;99721.34;4362619;32;34320;-81
2022/09/13 00:23:52;;;;;;;4.97;2.50;;;;;;;13.55;63.07;99718.81;4362777;32;34354;-80
2022/09/13 00:26:27;;;;;;;3.17;2.72;;;;;;;13.56;63.10;99725.88;4361940;32;35060;-79
2022/09/13 00:28:56;;;;;;;3.33;2.70;;;;;;;13.79;62.31;99727.31;4361573;32;34594;-79
2022/09/13 00:31:26;;;;;;;3.33;2.60;;;;;;;13.65;62.55;99718.84;4362849;32;33509;-80
2022/09/13 00:33:54;;;;;;;3.75;2.92;;;;;;;13.61;62.67;99723.19;4362328;32;33862;-79
2022/09/13 00:36:21;;;;;;;3.08;2.58;;;;;;;13.53;62.62;99716.34;4362197;32;34295;-80
2022/09/13 00:38:50;;;;;;;4.60;2.50;;;;;;;13.59;62.77;99719.91;4361860;32;34706;-80
2022/09/13 00:41:19;;;;;;;3.67;2.67;;;;;;;13.04;64.89;99719.41;4362520;32;33586;-79
2022/09/13 00:43:56;;;;;;;3.60;2.83;;;;;;;12.89;65.30;99720.19;4362538;32;34678;-80
2022/09/13 00:46:33;;;;;;;3.97;2.67;;;;;;;13.36;63.80;99717.66;4362062;32;33950;-80
2022/09/13 00:49:18;;;;;;;3.00;2.40;;;;;;;13.42;63.12;99713.88;4362423;32;34680;-80
2022/09/13 00:51:54;;;;;;;3.42;2.45;;;;;;;13.36;63.13;99720.41;4362452;32;33659;-80
2022/09/13 00:54:23;;;;;;;4.00;2.90;;;;;;;13.70;61.76;99726.22;4349089;32;33732;-80
2022/09/13 00:56:54;;;;;;;3.50;2.62;;;;;;;13.53;62.15;99721.81;4348488;32;34312;-80
2022/09/13 00:59:25;;;;;;;3.78;2.90;;;;;;;13.47;62.35;99714.69;4349011;32;34663;-80
2022/09/13 01:01:55;;;;;;;3.35;2.67;;;;;;;13.23;63.62;99718.97;4362195;32;33763;-79
2022/09/13 01:04:26;;;;;;;3.47;2.80;;;;;;;13.34;63.36;99715.22;4362052;32;34112;-79
2022/09/13 01:06:57;;;;;;;3.58;2.72;;;;;;;13.19;64.41;99713.22;4348579;32;34921;-80
2022/09/13 01:09:25;;;;;;;3.60;2.90;;;;;;;13.15;64.21;99714.84;4361857;32;33977;-80
2022/09/13 01:12:14;;;;;;;3.22;2.62;;;;;;;13.28;63.67;99713.50;4348711;32;33631;-80
2022/09/13 01:14:42;;;;;;;3.20;2.58;;;;;;;13.21;63.74;99715.69;4348714;32;33555;-79
2022/09/13 01:17:09;;;;;;;3.83;3.00;;;;;;;13.26;63.10;99718.41;4361970;32;35018;-80
2022/09/13 01:19:37;;;;;;;4.93;2.97;;;;;;;13.31;62.94;99719.28;4348810;32;33891;-80
2022/09/13 01:22:23;;;;;;;4.90;3.03;;;;;;;13.21;63.17;99718.41;4362134;32;33567;-79
2022/09/13 01:24:59;;;;;;;5.05;2.80;;;;;;;13.04;64.23;99722.16;4362126;32;34682;-80
2022/09/13 01:27:38;;;;;;;3.58;2.90;;;;;;;12.89;65.01;99720.19;4361443;32;33753;-79
2022/09/13 01:30:16;;;;;;;4.55;2.72;;;;;;;13.14;64.44;99713.22;4361171;32;33482;-80
2022/09/13 01:32:51;;;;;;;3.50;2.83;;;;;;;13.23;63.50;99717.03;4372211;32;34034;-79
2022/09/13 01:35:26;;;;;;;4.30;3.30;;;;;;;13.18;63.65;99714.31;4362225;32;34660;-80
2022/09/13 01:38:25;;;;;;;4.10;2.80;;;;;;;13.28;62.97;99713.50;4361707;32;34198;-80
2022/09/13 01:41:12;;;;;;;4.75;2.85;;;;;;;13.16;63.31;99715.69;4347244;33;34854;-80
2022/09/13 01:43:46;;;;;;;4.65;3.12;;;;;;;12.87;64.51;99716.91;4333959;33;33830;-80
2022/09/13 01:46:22;;;;;;;4.47;3.22;;;;;;;12.82;64.76;99711.44;4350345;32;35281;-80
2022/09/13 01:48:56;;;;;;;3.65;2.90;;;;;;;12.71;65.18;99710.56;4348584;32;34120;-80
2022/09/13 01:51:27;;;;;;;3.30;2.70;;;;;;;12.89;64.88;99713.91;4362051;32;34467;-81
2022/09/13 01:54:16;;;;;;;4.60;2.92;;;;;;;12.87;64.88;99710.63;4362143;32;33158;-80
2022/09/13 01:56:53;;;;;;;3.87;2.75;;;;;;;13.05;65.31;99702.00;4361576;32;33951;-80
2022/09/13 01:59:50;;;;;;;3.40;2.78;;;;;;;13.06;64.30;99698.19;4361863;32;33967;-80
2022/09/13 02:02:27;;;;;;;4.12;2.70;;;;;;;13.08;63.10;99696.00;4361346;32;34589;-80
2022/09/13 02:05:00;;;;;;;5.10;3.05;;;;;;;12.99;63.02;99696.81;4348207;32;33302;-80
2022/09/13 02:07:32;;;;;;;3.78;2.80;;;;;;;13.10;62.70;99696.56;4361519;32;33512;-80
2022/09/13 02:10:06;;;;;;;3.47;2.70;;;;;;;12.85;64.14;99700.03;4348054;32;34081;-80
2022/09/13 02:12:35;;;;;;;5.10;2.90;;;;;;;12.42;65.87;99699.22;4348917;32;33660;-81
2022/09/13 02:15:11;;;;;;;5.12;2.80;;;;;;;12.89;64.78;99695.69;4348253;32;33180;-80
2022/09/13 02:17:43;;;;;;;6.07;3.00;;;;;;;13.08;63.01;99697.94;4348087;32;34074;-80
2022/09/13 02:20:25;;;;;;;3.15;2.50;;;;;;;13.01;63.04;99698.19;4348010;32;33738;-80
2022/09/13 02:22:56;;;;;;;4.10;3.03;;;;;;;12.97;63.37;99693.53;4350344;32;33995;-80
2022/09/13 02:25:25;;;;;;;4.20;2.70;;;;;;;12.98;62.91;99689.72;4361652;32;33608;-80
2022/09/13 02:27:57;;;;;;;4.15;3.00;;;;;;;12.71;64.03;99686.06;4348070;32;33780;-79
2022/09/13 02:30:27;;;;;;;6.15;3.75;;;;;;;12.93;63.06;99685.06;4347848;32;34195;-80
2022/09/13 02:33:01;;;;;;;4.15;3.08;;;;;;;12.92;62.47;99681.53;4360597;32;34664;-80
2022/09/13 02:35:36;;;;;;;3.35;2.70;;;;;;;12.42;64.45;99682.91;4347743;32;34338;-79
2022/09/13 02:38:16;;;;;;;4.90;2.60;;;;;;;12.70;64.67;99686.34;4348316;32;33472;-80
2022/09/13 02:40:54;;;;;;;4.28;2.75;;;;;;;12.89;63.75;99683.94;4362161;32;34184;-80
2022/09/13 02:43:27;;;;;;;2.97;2.50;;;;;;;12.56;65.51;99677.81;4363315;32;33671;-80
2022/09/13 02:46:11;;;;;;;4.22;2.80;;;;;;;12.76;64.11;99681.72;4349201;32;34241;-79
2022/09/13 02:48:59;;;;;;;4.12;2.83;;;;;;;12.91;63.42;99681.78;4361723;32;34928;-80
2022/09/13 02:51:32;;;;;;;4.07;3.17;;;;;;;12.97;62.47;99679.91;4361525;32;35008;-80
2022/09/13 02:54:18;;;;;;;4.72;3.00;;;;;;;12.87;63.40;99672.50;4363567;32;34004;-81
2022/09/13 02:56:54;;;;;;;4.45;2.60;;;;;;;12.80;63.13;99669.22;4362866;32;33864;-78
2022/09/13 02:59:22;;;;;;;4.40;3.22;;;;;;;12.61;63.79;99671.56;4365599;32;34681;-81
2022/09/13 03:02:09;;;;;;;6.78;3.17;;;;;;;12.52;64.26;99665.81;4378101;32;35111;-80
2022/09/13 03:04:37;;;;;;;4.15;3.15;;;;;;;12.57;63.83;99670.44;4377942;32;34549;-81
2022/09/13 03:07:12;;;;;;;3.80;2.80;;;;;;;12.52;64.77;99663.09;4377820;32;33565;-81
2022/09/13 03:09:45;;;;;;;;;;;;;;;12.45;65.02;99657.87;4354296;32;33379;-80
2022/09/13 03:12:37;;;;;;;3.83;2.87;;;;;;;12.60;65.05;99661.78;4357431;32;34371;-80
2022/09/13 03:15:19;;;;;;;4.18;3.15;;;;;;;12.49;64.17;99656.28;4361874;32;34122;-79
2022/09/13 03:18:02;;;;;;;4.53;3.28;;;;;;;12.51;64.03;99656.03;4361312;32;33442;-80
2022/09/13 03:20:50;;;;;;;4.90;3.22;;;;;;;12.55;63.80;99659.00;4362489;32;34071;-80
2022/09/13 03:23:26;;;;;;;5.20;3.35;;;;;;;12.29;64.78;99654.25;4362109;32;34648;-80
2022/09/13 03:26:18;;;;;;;6.47;3.15;;;;;;;12.13;65.01;99644.34;4362095;32;34066;-80
2022/09/13 03:29:01;;;;;;;5.50;3.50;;;;;;;11.55;66.77;99654.19;4362099;32;34303;-80
2022/09/13 03:31:49;;;;;;;3.95;3.10;;;;;;;11.45;66.84;99646.75;4360886;32;34582;-78
2022/09/13 03:34:41;;;;;;;3.85;2.90;;;;;;;11.92;65.75;99643.37;4348898;32;34953;-80
2022/09/13 03:37:32;;;;;;;3.85;2.90;;;;;;;11.87;65.83;99649.56;4361954;32;33859;-79
2022/09/13 03:40:14;;;;;;;3.75;2.80;;;;;;;12.51;63.34;99651.37;4361471;32;34075;-80
2022/09/13 03:42:47;;;;;;;3.70;3.08;;;;;;;12.45;63.24;99646.19;4362080;32;33852;-79
2022/09/13 03:45:17;;;;;;;4.82;3.20;;;;;;;12.22;64.31;99650.13;4348547;32;34219;-80
2022/09/13 03:47:47;;;;;;;5.10;3.47;;;;;;;12.44;63.61;99642.66;4347187;32;34545;-79
2022/09/13 03:50:18;;;;;;;4.12;3.35;;;;;;;12.36;65.69;99637.69;4347965;32;33401;-79
2022/09/13 03:52:47;;;;;;;5.40;3.53;;;;;;;12.39;64.48;99634.44;4334884;32;32723;-79
2022/09/13 03:55:18;;;;;;;5.12;3.60;;;;;;;11.72;66.61;99629.59;4360642;32;35004;-79
2022/09/13 03:57:46;;;;;;;5.43;3.50;;;;;;;12.15;65.68;99634.03;4360478;32;33802;-79
2022/09/13 04:00:14;;;;;;;6.87;3.83;;;;;;;11.34;67.72;99631.41;4361836;32;33327;-79
2022/09/13 04:02:41;;;;;;;4.87;3.60;;;;;;;11.46;67.29;99638.34;4367195;32;33987;-79
2022/09/13 04:05:09;;;;;;;4.80;3.72;;;;;;;11.42;67.46;99639.09;4361712;32;34305;-80
2022/09/13 04:07:36;;;;;;;4.10;3.42;;;;;;;11.43;67.49;99643.47;4361429;32;33922;-79
2022/09/13 04:10:04;;;;;;;4.62;3.30;;;;;;;11.87;65.59;99635.16;4361406;32;33393;-77
2022/09/13 04:12:32;;;;;;;4.35;3.58;;;;;;;12.21;64.20;99643.06;4357222;32;88861;-77
2022/09/13 04:14:59;;;;;;;5.10;3.60;;;;;;;12.09;64.93;99648.66;4347962;33;34212;-79
2022/09/13 04:17:27;;;;;;;6.28;3.62;;;;;;;12.17;64.93;99650.91;4346788;33;33882;-76
2022/09/13 04:19:54;;;;;;;5.45;3.45;;;;;;;12.02;66.17;99646.16;4347586;33;34006;-81
2022/09/13 04:22:21;;;;;;;4.32;3.50;;;;;;;12.03;66.36;99638.81;4347783;33;34302;-75
2022/09/13 04:24:51;;;;;;;4.62;3.55;;;;;;;11.87;66.17;99659.63;4347069;32;34429;-76
2022/09/13 04:27:19;;;;;;;4.37;3.28;;;;;;;11.95;66.11;99653.75;4346654;32;34212;-77
2022/09/13 04:29:46;;;;;;;4.53;3.50;;;;;;;11.73;66.83;99647.53;4347223;33;33517;-75
2022/09/13 04:32:14;;;;;;;5.10;3.45;;;;;;;12.00;65.68;99651.06;4344956;32;34757;-75
2022/09/13 04:34:41;;;;;;;5.87;4.07;;;;;;;12.24;64.71;99648.75;4361798;32;34128;-76
2022/09/13 04:37:08;;;;;;;4.62;3.78;;;;;;;11.88;66.41;99650.44;4361253;32;33528;-78
2022/09/13 04:39:36;;;;;;;5.80;4.22;;;;;;;11.80;66.70;99650.87;4361954;32;34230;-77
2022/09/13 04:42:04;;;;;;;6.80;3.87;;;;;;;12.01;66.29;99649.16;4361375;32;33850;-77
2022/09/13 04:44:32;;;;;;;3.70;3.08;;;;;;;12.06;64.73;99644.56;4361812;32;35049;-77
2022/09/13 04:46:59;;;;;;;5.10;3.70;;;;;;;12.10;63.99;99644.88;4361032;32;34074;-78
2022/09/13 04:49:27;;;;;;;7.07;4.47;;;;;;;12.24;63.40;99653.41;4360873;32;34816;-76
2022/09/13 04:51:54;;;;;;;7.40;4.75;;;;;;;12.11;64.35;99650.03;4362049;32;34630;-78
2022/09/13 04:54:22;;;;;;;10.68;4.62;;;;;;;12.05;65.15;99651.09;4361788;32;35059;-77
2022/09/13 04:56:49;;;;;;;11.43;4.75;;;;;;;12.13;64.63;99657.13;4361878;32;34591;-78
2022/09/13 04:59:16;;;;;;;9.82;5.00;;;;;;;12.06;65.39;99650.00;4361956;32;34397;-78
2022/09/13 05:01:44;;;;;;;10.48;4.95;;;;;;;11.73;66.94;99653.81;4360631;32;34009;-78
2022/09/13 05:04:11;;;;;;;7.93;4.87;;;;;;;11.76;67.16;99655.19;4360064;32;34291;-76
2022/09/13 05:06:39;;;;;;;9.32;4.82;;;;;;;11.68;67.91;99651.88;4361358;32;33937;-75
2022/09/13 05:09:12;;;;;;;8.23;4.80;;;;;;;12.05;66.99;99653.81;4361146;32;33714;-76
2022/09/13 05:11:40;;;;;;;7.90;4.47;;;;;;;12.16;66.64;99653.88;4351246;32;33597;-78
2022/09/13 05:14:11;;;;;;;5.43;4.05;;;;;;;12.50;66.07;99657.94;4358148;32;34321;-73
2022/09/13 05:16:38;;;;;;;6.07;3.80;;;;;;;12.45;65.98;99651.63;4351124;32;33833;-83
2022/09/13 05:19:05;;;;;;;7.22;4.18;;;;;;;12.66;64.83;99658.81;4345573;32;33373;-74
2022/09/13 05:21:33;;;;;;;6.57;4.25;;;;;;;12.71;64.76;99666.19;4351224;32;34098;-81
2022/09/13 05:24:01;;;;;;;6.25;4.40;;;;;;;12.96;65.04;99660.03;4351999;32;34309;-76
2022/09/13 05:26:32;;;;;;;7.55;4.32;;;;;;;13.32;64.77;99666.41;4354946;32;33561;-77
2022/09/13 05:29:00;;;;;;;7.57;4.25;;;;;;;13.62;64.44;99659.38;4350954;32;34068;-76
2022/09/13 05:31:30;;;;;;;6.85;4.07;;;;;;;13.25;65.08;99660.38;4349218;32;34217;-75
2022/09/13 05:34:20;;;;;;;7.78;4.07;;;;;;;13.65;62.94;99658.87;4360388;32;34271;-73
2022/09/13 05:36:49;;;;;;;7.50;4.10;;;;;;;14.39;59.98;99656.63;4344571;32;34017;-73
2022/09/13 05:39:21;;;;;;;5.85;4.10;;;;;;;14.69;58.46;99660.41;4345512;33;32969;-76
2022/09/13 05:42:06;;;;;;;6.57;4.00;;;;;;;15.06;57.70;99653.72;4345889;32;34428;-74
2022/09/13 05:44:33;;;;;;;4.57;3.55;;;;;;;15.22;57.35;99652.50;4338917;32;34922;-81
2022/09/13 05:47:00;;;;;;;5.37;3.42;;;;;;;15.46;56.37;99660.03;4346319;33;34667;-79
2022/09/13 05:49:28;;;;;;;4.28;3.28;;;;;;;15.54;56.48;99659.44;4345990;33;33474;-80
2022/09/13 05:51:55;;;;;;;3.72;2.92;;;;;;;15.50;55.71;99661.09;4346748;33;34003;-75
2022/09/13 05:54:22;;;;;;;4.80;3.00;;;;;;;15.45;55.80;99661.12;4350454;32;34119;-74
2022/09/13 05:56:51;;;;;;;5.03;4.10;;;;;;;15.93;55.37;99664.09;4358747;32;34071;-80
2022/09/13 05:59:18;;;;;;;5.75;3.15;;;;;;;16.12;55.03;99664.22;4345987;33;33540;-82
2022/09/13 06:01:47;;;;;;;4.35;3.17;;;;;;;15.97;56.67;99668.69;4347693;32;34622;-81
2022/09/13 06:04:14;;;;;;;4.20;2.78;;;;;;;16.43;54.66;99672.13;4360102;32;35079;-79
2022/09/13 06:06:42;;;;;;;4.20;2.92;;;;;;;16.34;55.64;99671.94;4341535;33;34632;-76
2022/09/13 06:09:10;;;;;;;3.72;2.72;;;;;;;16.04;58.55;99675.78;4343179;33;33024;-74
2022/09/13 06:11:38;;;;;;;5.62;3.47;;;;;;;16.78;55.04;99673.66;4347060;33;34062;-79
2022/09/13 06:14:05;;;;;;;4.97;2.78;;;;;;;17.19;54.50;99670.41;4358058;32;33981;-75
2022/09/13 06:16:32;;;;;;;4.87;3.08;;;;;;;16.95;53.84;99674.03;4347803;32;33653;-75
2022/09/13 06:19:00;;;;;;;6.95;3.28;;;;;;;17.22;53.58;99669.84;4362339;32;33103;-76
2022/09/13 06:21:28;;;;;;;4.95;3.40;;;;;;;16.89;55.68;99664.25;4360471;32;34526;-77
2022/09/13 06:23:55;;;;;;;5.37;3.00;;;;;;;17.22;54.15;99670.66;4361650;32;34819;-77
2022/09/13 06:26:25;;;;;;;6.07;3.62;;;;;;;17.72;52.18;99672.97;4363686;32;34041;-76
2022/09/13 06:28:55;;;;;;;5.18;3.20;;;;;;;17.95;52.63;99670.47;4376738;32;34197;-76
2022/09/13 06:31:24;;;;;;;6.57;3.15;;;;;;;18.17;52.11;99673.34;4353401;32;34677;-76
2022/09/13 06:33:58;;;;;;;7.53;2.97;;;;;;;17.60;49.73;99675.34;4362932;32;33935;-77
2022/09/13 06:36:25;;;;;;;5.05;2.65;;;;;;;17.58;52.46;99664.69;4364052;32;34626;-77
2022/09/13 06:38:53;;;;;;;5.03;2.85;;;;;;;18.42;51.42;99665.75;4347844;32;33720;-76
2022/09/13 06:41:22;;;;;;;5.10;2.70;;;;;;;18.02;53.44;99660.69;4367001;32;33935;-77
2022/09/13 06:43:58;;;;;;;4.82;2.83;;;;;;;18.14;53.03;99668.47;4372913;32;35196;-77
2022/09/13 06:46:32;;;;;;;5.75;2.55;;;;;;;18.21;50.18;99660.66;4360099;32;35162;-75
2022/09/13 06:49:02;;;;;;;4.57;3.03;;;;;;;17.92;51.62;99654.56;4359735;32;34375;-71
2022/09/13 06:51:31;;;;;;;4.65;2.50;;;;;;;17.93;52.96;99664.44;4352657;32;33264;-70
2022/09/13 06:53:59;;;;;;;5.47;2.65;;;;;;;18.02;53.36;99659.91;4346059;32;33798;-74
2022/09/13 06:56:28;;;;;;;3.92;2.50;;;;;;;19.21;47.69;99664.78;4360636;32;34110;-69
2022/09/13 06:58:58;;;;;;;6.00;2.50;;;;;;;19.45;47.26;99665.31;4362604;32;34175;-75
2022/09/13 07:01:30;;;;;;;3.83;2.15;;;;;;;19.13;47.22;99668.25;4359260;32;34007;-69
2022/09/13 07:04:02;;;;;;;4.10;2.50;;;;;;;19.33;45.33;99672.47;4363264;32;34775;-70
2022/09/13 07:06:34;;;;;;;3.30;2.20;;;;;;;19.29;44.86;99675.06;4356442;32;36162;-69
2022/09/13 07:09:04;;;;;;;5.43;2.40;;;;;;;19.94;43.85;99679.38;4352763;32;33468;-69
2022/09/13 07:11:34;;;;;;;2.62;2.08;;;;;;;19.67;43.73;99675.56;4353639;32;33789;-69
2022/09/13 07:14:02;;;;;;;2.87;1.98;;;;;;;20.12;43.48;99677.53;4360287;32;34771;-70
2022/09/13 07:16:31;;;;;;;3.78;2.10;;;;;;;19.69;43.56;99683.50;4363541;32;33628;-70
2022/09/13 07:19:00;;;;;;;2.78;2.00;;;;;;;19.75;42.66;99667.72;4359163;32;32815;-71
2022/09/13 07:21:28;;;;;;;3.65;2.30;;;;;;;19.80;42.50;99678.59;4358244;32;34788;-70
2022/09/13 07:23:56;;;;;;;4.43;2.30;;;;;;;20.01;43.37;99679.72;4360375;32;34765;-70
2022/09/13 07:26:26;;;;;;;3.62;2.15;;;;;;;20.05;42.85;99682.69;4359416;32;34784;-70
2022/09/13 07:28:55;;;;;;;2.85;2.28;;;;;;;19.56;43.80;99684.34;4338882;32;33991;-72
2022/09/13 07:31:25;;;;;;;2.87;2.20;;;;;;;19.94;42.80;99684.88;4361305;32;33843;-69
2022/09/13 07:34:01;;;;;;;3.55;1.98;;;;;;;19.65;43.45;99688.00;4360290;32;34229;-76
2022/09/13 07:36:30;;;;;;;4.18;2.30;;;;;;;19.91;44.00;99679.16;4359416;32;34708;-78
2022/09/13 07:38:58;;;;;;;2.85;2.05;;;;;;;19.99;43.21;99681.16;4360855;32;34608;-80
2022/09/13 07:41:27;;;;;;;3.60;2.17;;;;;;;20.27;42.45;99676.31;4353784;32;34777;-75
2022/09/13 07:43:55;;;;;;;4.20;2.15;;;;;;;20.71;41.93;99688.41;4357243;32;34375;-78
2022/09/13 07:46:25;;;;;;;3.40;2.30;;;;;;;20.52;42.45;99683.13;4359000;32;34796;-78
2022/09/13 07:48:54;;;;;;;3.40;2.30;;;;;;;20.59;42.70;99685.44;4348184;32;33524;-73
2022/09/13 07:51:24;;;;;;;4.57;2.45;;;;;;;19.70;43.40;99685.16;4354729;32;33961;-73
2022/09/13 07:53:55;;;;;;;4.60;2.60;;;;;;;20.14;43.44;99689.03;4356387;32;33924;-69
2022/09/13 07:56:26;;;;;;;3.75;2.65;;;;;;;20.48;42.15;99693.16;4350090;32;33476;-67
2022/09/13 07:58:54;;;;;;;3.70;2.50;;;;;;;20.33;42.28;99685.28;4361601;32;33426;-71
2022/09/13 08:01:23;;;;;;;3.92;2.92;;;;;;;20.36;41.90;99687.41;4358665;32;34570;-82
2022/09/13 08:03:56;;;;;;;4.05;2.62;;;;;;;19.96;43.14;99681.81;4365737;32;33835;-85
2022/09/13 08:06:25;;;;;;;4.10;2.80;;;;;;;20.41;44.21;99687.25;4358551;32;33919;-80
2022/09/13 08:08:52;;;;;;;4.45;2.97;;;;;;;20.18;43.39;99684.53;4354778;32;33103;-75
2022/09/13 08:11:23;;;;;;;5.95;2.87;;;;;;;20.29;44.82;99685.91;4348214;32;33891;-81
2022/09/13 08:13:51;;;;;;;5.05;2.83;;;;;;;20.44;43.13;99689.37;4357253;32;34583;-86
2022/09/13 08:16:20;;;;;;;4.75;2.90;;;;;;;20.28;42.73;99687.03;4332936;33;34086;-75
2022/09/13 08:18:49;;;;;;;6.80;3.42;;;;;;;20.28;42.62;99689.78;4345538;33;33292;-82
2022/09/13 08:21:17;;;;;;;3.97;3.00;;;;;;;20.32;43.78;99687.19;4339428;33;34550;-84
2022/09/13 08:23:45;;;;;;;5.35;3.00;;;;;;;20.81;42.52;99698.34;4337293;33;35075;-86
2022/09/13 08:26:13;;;;;;;4.57;3.05;;;;;;;21.02;42.04;99695.84;4334351;33;35142;-78
2022/09/13 08:28:41;;;;;;;5.50;3.20;;;;;;;20.60;44.17;99696.13;4343055;33;33243;-79
2022/09/13 08:31:12;;;;;;;4.90;2.90;;;;;;;20.84;41.61;99689.44;4341937;33;33983;-80
2022/09/13 08:33:43;;;;;;;4.47;2.78;;;;;;;21.04;42.88;99688.06;4341783;33;34914;-83
2022/09/13 08:36:14;;;;;;;3.87;2.85;;;;;;;21.17;41.69;99686.31;4331286;32;33918;-81
2022/09/13 08:38:47;;;;;;;5.45;3.17;;;;;;;20.92;42.83;99688.66;4347504;32;33426;-87
2022/09/13 08:41:36;;;;;;;5.32;2.97;;;;;;;20.61;42.62;99677.69;4337195;32;34927;-83
2022/09/13 08:44:26;;;;;;;4.57;2.90;;;;;;;21.25;41.92;99677.19;4344366;32;34243;-85
2022/09/13 08:46:58;;;;;;;4.53;3.10;;;;;;;21.68;41.29;99684.75;4336230;33;33991;-79
2022/09/13 08:49:31;;;;;;;3.83;2.92;;;;;;;21.64;39.60;99681.84;4344333;33;33370;-80
2022/09/13 08:52:04;;;;;;;3.97;2.80;;;;;;;21.46;40.21;99677.44;4345491;32;34656;-79
2022/09/13 08:54:31;;;;;;;5.12;2.60;;;;;;;21.40;41.61;99681.44;4332206;33;35112;-81
2022/09/13 08:57:16;;;;;;;4.05;2.85;;;;;;;21.35;40.73;99679.66;4338850;33;34090;-83
2022/09/13 09:00:17;;;;;;;4.93;2.55;;;;;;;21.26;40.19;99679.66;4336505;33;33406;-81
2022/09/13 09:02:53;;;;;;;4.50;2.70;;;;;;;21.82;40.86;99674.34;4344074;33;34000;-80
2022/09/13 09:05:23;;;;;;;6.97;3.03;;;;;;;22.15;39.69;99681.31;4342793;33;34855;-86
2022/09/13 09:08:11;;;;;;;5.15;2.75;;;;;;;21.46;40.00;99671.91;4345779;33;33949;-75
2022/09/13 09:10:45;;;;;;;6.18;2.85;;;;;;;22.23;39.05;99680.53;4332990;33;33317;-78
2022/09/13 09:13:22;;;;;;;3.70;2.60;;;;;;;21.85;41.26;99675.66;4338699;32;34057;-78
2022/09/13 09:16:00;;;;;;;5.93;3.00;;;;;;;22.19;40.54;99672.03;4346938;33;35024;-71
2022/09/13 09:18:32;;;;;;;5.22;2.97;;;;;;;22.51;39.47;99672.63;4334429;33;34124;-67
2022/09/13 09:21:00;;;;;;;5.40;2.92;;;;;;;22.48;39.34;99664.97;4328411;33;34460;-75
2022/09/13 09:23:38;;;;;;;7.28;2.80;;;;;;;22.50;38.01;99663.53;4340470;32;33945;-73
2022/09/13 09:26:18;;;;;;;5.70;2.85;;;;;;;22.51;36.57;99650.50;4333725;33;34958;-70
2022/09/13 09:28:57;;;;;;;3.75;2.37;;;;;;;22.58;38.26;99655.53;4347055;33;34668;-69
2022/09/13 09:31:36;;;;;;;3.62;2.17;;;;;;;22.59;36.31;99654.38;4347312;32;33285;-69
2022/09/13 09:34:13;;;;;;;3.12;2.10;;;;;;;22.55;36.57;99647.88;4334242;33;33923;-75
2022/09/13 09:36:49;;;;;;;4.12;2.37;;;;;;;22.75;36.93;99649.13;4339692;32;34898;-67
2022/09/13 09:39:17;;;;;;;3.42;2.17;;;;;;;22.77;37.55;99644.88;4321313;33;34635;-71
2022/09/13 09:41:45;;;;;;;3.78;2.70;;;;;;;22.77;35.80;99647.62;4346978;33;34282;-71
2022/09/13 09:44:18;;;;;;;4.53;2.85;;;;;;;22.60;37.76;99647.72;4324315;33;34549;-69
2022/09/13 09:46:49;;;;;;;4.32;2.53;;;;;;;22.78;36.87;99649.25;4346309;33;34986;-74
2022/09/13 09:52:28;;;;;;;3.45;2.40;;;;;;;22.57;37.61;99642.81;4336858;32;33578;-69
2022/09/13 09:55:01;;;;;;;4.45;2.58;;;;;;;22.80;37.14;99635.09;4333132;33;34758;-78
2022/09/13 09:57:48;;;;;;;5.60;2.70;;;;;;;22.81;37.20;99632.00;4337575;33;34267;-73
2022/09/13 10:00:16;;;;;;;4.37;2.62;;;;;;;22.63;37.35;99622.16;4333572;33;33913;-71
2022/09/13 10:02:44;;;;;;;4.12;2.55;;;;;;;22.49;38.67;99622.38;4343537;32;34435;-68
2022/09/13 10:05:18;;;;;;;4.85;2.47;;;;;;;22.78;36.11;99615.25;4348312;32;34007;-76
2022/09/13 10:07:54;;;;;;;2.97;2.03;;;;;;;22.32;37.81;99617.72;4334084;33;35209;-68
2022/09/13 10:10:25;;;;;;;3.67;2.33;;;;;;;22.18;36.55;99608.78;4332133;33;34217;-67
2022/09/13 10:12:58;;;;;;;3.55;1.95;;;;;;;22.59;38.16;99607.38;4354510;32;34576;-68
2022/09/13 10:15:31;;;;;;;3.35;2.50;;;;;;;22.69;37.62;99599.50;4352630;32;33714;-68
2022/09/13 10:18:04;;;;;;;5.37;2.08;;;;;;;22.63;36.67;99603.59;4364926;32;34305;-69
2022/09/13 10:21:01;;;;;;;2.90;1.92;;;;;;;23.17;37.33;99602.16;4336081;33;34068;-69
2022/09/13 10:23:31;;;;;;;3.75;2.10;;;;;;;23.22;37.75;99601.97;4368355;32;34040;-68
2022/09/13 10:26:01;;;;;;;2.97;2.20;;;;;;;22.43;37.83;99601.59;4346867;32;33400;-75
2022/09/13 10:28:30;;;;;;;5.12;2.55;;;;;;;22.99;38.76;99595.94;4370609;32;34161;-68
2022/09/13 10:31:00;;;;;;;3.37;2.08;;;;;;;23.31;36.86;99594.41;4348273;32;34066;-74
2022/09/13 10:33:31;;;;;;;3.55;2.35;;;;;;;23.57;36.87;99588.66;4350839;32;33333;-72
2022/09/13 10:36:06;;;;;;;5.35;2.50;;;;;;;23.63;36.71;99592.84;4348299;32;34949;-70
2022/09/13 10:38:37;;;;;;;4.87;2.42;;;;;;;23.56;35.79;99581.47;4350000;32;34188;-67
2022/09/13 10:41:20;;;;;;;4.60;2.15;;;;;;;23.91;35.87;99584.75;4345329;32;33802;-70
2022/09/13 10:43:48;;;;;;;3.05;2.00;;;;;;;23.78;35.23;99573.97;4361146;32;34151;-67
2022/09/13 10:46:21;;;;;;;4.28;2.50;;;;;;;24.21;34.84;99586.53;4339531;32;33969;-69
2022/09/13 10:48:56;;;;;;;4.97;2.20;;;;;;;23.89;33.81;99587.06;4362671;32;34274;-69
2022/09/13 10:51:26;;;;;;;3.60;2.03;;;;;;;23.43;33.84;99586.16;4359715;32;33831;-68
2022/09/13 10:54:18;;;;;;;5.18;2.33;;;;;;;23.31;36.19;99581.37;4357687;32;33438;-68
2022/09/13 10:56:47;;;;;;;3.12;2.30;;;;;;;23.55;34.29;99580.69;4360562;32;33994;-68
2022/09/13 10:59:29;;;;;;;4.47;2.47;;;;;;;23.42;35.25;99579.00;4359535;32;33849;-68
2022/09/13 11:02:05;;;;;;;4.62;2.20;;;;;;;23.75;34.71;99584.59;4362812;32;34065;-69
2022/09/13 11:04:38;;;;;;;4.55;2.50;;;;;;;24.23;33.97;99579.50;4363366;32;33655;-75
2022/09/13 11:07:19;;;;;;;4.32;2.58;;;;;;;23.79;35.22;99576.41;4357398;32;33938;-67
2022/09/13 11:10:13;;;;;;;3.90;2.15;;;;;;;22.81;37.41;99575.88;4362540;32;34143;-67
2022/09/13 11:12:59;;;;;;;3.37;1.70;;;;;;;23.17;37.44;99575.28;4354606;32;33922;-68
2022/09/13 11:15:35;;;;;;;1.90;1.58;;;;;;;23.48;37.33;99571.31;4362466;32;34283;-68
2022/09/13 11:18:28;;;;;;;3.50;1.67;;;;;;;23.94;35.63;99564.66;4362365;32;34233;-67
2022/09/13 11:21:14;;;;;;;4.37;1.70;;;;;;;23.97;35.41;99565.13;4353741;32;35103;-67
2022/09/13 11:24:09;;;;;;;3.85;2.00;;;;;;;24.42;33.58;99573.38;4359765;32;34835;-67
2022/09/13 11:26:55;;;;;;;;;;;;;;;24.62;33.25;99571.72;4348811;32;34158;-70
2022/09/13 11:29:52;;;;;;;2.65;1.60;;;;;;;24.60;31.66;99574.03;4362374;32;34132;-68
2022/09/13 11:32:42;;;;;;;3.30;1.50;;;;;;;24.74;33.21;99562.56;4338243;32;33630;-67
2022/09/13 11:35:47;;;;;;;2.00;1.60;;;;;;;24.27;33.27;99554.66;4361175;32;34077;-81
2022/09/13 11:38:41;;;;;;;2.75;1.92;;;;;;;24.75;31.44;99561.38;4356462;32;33566;-71
2022/09/13 11:41:37;;;;;;;2.75;1.92;;;;;;;24.45;32.40;99558.03;4348318;32;33916;-69
2022/09/13 11:44:26;;;;;;;3.53;1.73;;;;;;;24.10;32.53;99542.66;4338048;32;34187;-70
2022/09/13 11:47:15;;;;;;;2.87;1.98;;;;;;;24.45;33.62;99542.22;4357832;32;34803;-71
2022/09/13 11:50:02;;;;;;;3.10;1.65;;;;;;;24.30;33.44;99543.72;4355305;32;33028;-68
2022/09/13 11:53:03;;;;;;;2.00;1.60;;;;;;;23.96;34.72;99531.09;4336775;33;33557;-68
2022/09/13 11:55:47;;;;;;;4.65;2.28;;;;;;;24.40;32.77;99527.75;4347016;33;33971;-67
2022/09/13 11:58:20;;;;;;;3.55;1.75;;;;;;;24.65;34.20;99534.94;4341244;33;34014;-69
2022/09/13 12:00:52;;;;;;;1.95;1.50;;;;;;;24.09;35.96;99529.13;4345784;33;34524;-72
2022/09/13 12:03:57;;;;;;;3.50;1.70;;;;;;;24.42;34.73;99519.91;4335368;33;33896;-73
2022/09/13 12:06:29;;;;;;;1.90;1.55;;;;;;;24.15;34.32;99525.00;4337408;32;34770;-68
2022/09/13 12:09:02;;;;;;;2.92;1.80;;;;;;;23.91;34.34;99526.56;4337394;33;33860;-70